Time;durP1;ratioP1;P1;durP2;ratioP2;P2;SDS_P1;SDS_P2;PMS_P1;PMS_P2;Temp;Humidity;BMP_temperature;BMP_pressure;BME280_temperature;BME280_humidity;BME280_pressure;Samples;Min_cycle;Max_cycle;Signal;HPM_P1;HPM_P2
2022/06/29 00:00:20;;;;;;;3.33;2.10;;;22.50;1.00;;;;;;5039452;28;20167;-86
2022/06/29 00:02:46;;;;;;;7.47;2.27;;;22.40;1.00;;;;;;5040993;28;20184;-88
2022/06/29 00:05:14;;;;;;;4.07;2.00;;;22.40;1.00;;;;;;5022569;28;20179;-86
2022/06/29 00:07:42;;;;;;;7.17;2.27;;;22.50;1.00;;;;;;5022979;28;20212;-86
2022/06/29 00:10:09;;;;;;;5.53;2.33;;;22.50;1.00;;;;;;5041908;28;20172;-86
2022/06/29 00:12:35;;;;;;;5.43;1.83;;;22.30;1.00;;;;;;5026379;28;20213;-88
2022/06/29 00:15:02;;;;;;;5.57;1.90;;;22.30;1.00;;;;;;5044385;28;20195;-87
2022/06/29 00:17:30;;;;;;;5.20;2.50;;;22.20;1.00;;;;;;5045191;28;20179;-88
2022/06/29 00:19:57;;;;;;;3.90;2.30;;;22.20;1.00;;;;;;5048486;28;20199;-88
2022/06/29 00:22:23;;;;;;;6.77;2.60;;;22.30;1.00;;;;;;5051701;28;20191;-86
2022/06/29 00:24:48;;;;;;;4.87;2.20;;;22.30;1.00;;;;;;5041111;28;20179;-86
2022/06/29 00:27:17;;;;;;;4.80;2.10;;;22.30;1.00;;;;;;5025309;28;20210;-85
2022/06/29 00:29:53;;;;;;;6.50;2.23;;;22.30;1.00;;;;;;5058446;28;20180;-86
2022/06/29 00:32:18;;;;;;;4.90;2.17;;;22.40;1.00;;;;;;5041478;28;20202;-88
2022/06/29 00:34:44;;;;;;;5.37;2.03;;;22.30;1.00;;;;;;5051938;28;20149;-83
2022/06/29 00:37:13;;;;;;;5.80;2.57;;;22.30;1.00;;;;;;5032793;28;20611;-86
2022/06/29 00:39:46;;;;;;;3.60;2.20;;;22.30;1.00;;;;;;5019345;28;20262;-83
2022/06/29 00:42:12;;;;;;;4.97;2.17;;;22.30;1.00;;;;;;5056986;28;20160;-86
2022/06/29 00:44:38;;;;;;;3.20;2.10;;;22.30;1.00;;;;;;5039990;28;20202;-86
2022/06/29 00:47:05;;;;;;;6.47;2.20;;;22.20;1.00;;;;;;5057262;28;20222;-83
2022/06/29 00:49:33;;;;;;;5.63;2.20;;;22.30;1.00;;;;;;5039947;28;20196;-83
2022/06/29 00:52:09;;;;;;;5.00;2.20;;;22.30;1.00;;;;;;5040075;28;20214;-82
2022/06/29 00:54:56;;;;;;;4.20;2.17;;;22.30;1.00;;;;;;5037452;28;20176;-88
2022/06/29 00:57:26;;;;;;;6.27;3.27;;;22.30;1.00;;;;;;5038784;28;20179;-87
2022/06/29 00:59:57;;;;;;;5.57;2.90;;;22.30;1.00;;;;;;5057139;28;20261;-86
2022/06/29 01:02:33;;;;;;;7.23;2.43;;;22.30;1.00;;;;;;5040207;28;20175;-83
2022/06/29 01:05:00;;;;;;;4.27;2.23;;;22.30;1.00;;;;;;5040148;28;20184;-83
2022/06/29 01:07:29;;;;;;;4.00;1.93;;;22.30;1.00;;;;;;5057143;28;20202;-81
2022/06/29 01:09:55;;;;;;;4.10;2.10;;;22.30;1.00;;;;;;5040026;28;20182;-83
2022/06/29 01:12:21;;;;;;;4.77;2.10;;;22.40;1.00;;;;;;5057488;28;20223;-84
2022/06/29 01:14:49;;;;;;;6.60;2.00;;;22.40;1.00;;;;;;5041207;28;20182;-80
2022/06/29 01:17:15;;;;;;;4.30;2.00;;;22.30;1.00;;;;;;5059074;28;20191;-81
2022/06/29 01:19:42;;;;;;;3.67;1.97;;;22.30;1.00;;;;;;5059041;28;20148;-82
2022/06/29 01:22:16;;;;;;;4.57;1.90;;;22.30;1.00;;;;;;5042178;28;20170;-82
2022/06/29 01:24:46;;;;;;;5.13;1.97;;;22.40;1.00;;;;;;5040684;28;20170;-87
2022/06/29 01:27:13;;;;;;;4.93;2.10;;;22.40;1.00;;;;;;5055911;28;20206;-87
2022/06/29 01:29:42;;;;;;;5.50;2.30;;;22.40;1.00;;;;;;5040829;28;20171;-80
2022/06/29 01:32:08;;;;;;;4.03;1.87;;;22.40;1.00;;;;;;5044933;28;20162;-82
2022/06/29 01:34:35;;;;;;;4.17;1.97;;;22.40;1.00;;;;;;5044756;28;20167;-83
2022/06/29 01:37:10;;;;;;;3.17;1.90;;;22.40;1.00;;;;;;5061198;28;20199;-83
2022/06/29 01:39:42;;;;;;;5.10;2.00;;;22.40;1.00;;;;;;5058428;28;20169;-88
2022/06/29 01:42:26;;;;;;;4.23;1.83;;;22.40;1.00;;;;;;5037313;28;20258;-86
2022/06/29 01:44:53;;;;;;;4.03;2.10;;;22.40;1.00;;;;;;5055703;28;20171;-87
2022/06/29 01:47:26;;;;;;;4.07;2.10;;;22.40;1.00;;;;;;5049655;28;20212;-88
2022/06/29 01:50:00;;;;;;;5.83;2.30;;;22.30;1.00;;;;;;5049233;28;20190;-82
2022/06/29 01:52:28;;;;;;;4.43;1.80;;;22.30;1.00;;;;;;5052560;28;20176;-82
2022/06/29 01:54:54;;;;;;;6.27;2.20;;;22.30;1.00;;;;;;5041581;28;20173;-81
2022/06/29 01:57:21;;;;;;;5.33;2.27;;;22.30;1.00;;;;;;5041534;28;20182;-84
2022/06/29 02:00:26;;;;;;;5.67;1.97;;;22.20;1.00;;;;;;5050103;28;20158;-87
2022/06/29 02:02:57;;;;;;;4.47;2.17;;;22.30;1.00;;;;;;5042360;28;20163;-87
2022/06/29 02:05:26;;;;;;;6.00;2.27;;;22.20;1.00;;;;;;5033043;28;20147;-82
2022/06/29 02:07:55;;;;;;;5.80;2.13;;;22.20;1.00;;;;;;5043169;28;20219;-83
2022/06/29 02:10:24;;;;;;;5.07;2.50;;;22.20;1.00;;;;;;5061570;28;20211;-82
2022/06/29 02:12:56;;;;;;;4.90;2.10;;;22.20;1.00;;;;;;5047739;28;20176;-87
2022/06/29 02:15:23;;;;;;;3.73;2.40;;;22.30;1.00;;;;;;5027606;28;20262;-86
2022/06/29 02:17:50;;;;;;;5.67;2.33;;;22.30;1.00;;;;;;5043221;28;20250;-89
2022/06/29 02:20:15;;;;;;;4.90;2.40;;;22.20;1.00;;;;;;5043455;28;20175;-87
2022/06/29 02:22:41;;;;;;;4.93;2.80;;;22.20;1.00;;;;;;5038828;28;20176;-87
2022/06/29 02:25:08;;;;;;;4.23;2.43;;;22.20;1.00;;;;;;5038907;28;20175;-87
2022/06/29 02:27:41;;;;;;;5.80;2.80;;;22.20;1.00;;;;;;5041395;28;20215;-86
2022/06/29 02:30:09;;;;;;;5.73;2.67;;;22.20;1.00;;;;;;5044217;28;20168;-86
2022/06/29 02:35:20;;;;;;;7.97;3.23;;;22.00;1.00;;;;;;5040741;28;20652;-86
2022/06/29 02:37:45;;;;;;;5.73;3.20;;;21.90;1.00;;;;;;5026185;28;20184;-86
2022/06/29 02:40:11;;;;;;;5.43;2.80;;;21.90;1.00;;;;;;5045548;28;20253;-87
2022/06/29 02:42:37;;;;;;;5.50;3.03;;;21.90;1.00;;;;;;5027510;28;20215;-85
2022/06/29 02:45:04;;;;;;;6.17;3.33;;;21.80;1.00;;;;;;5042433;28;20221;-86
2022/06/29 02:47:29;;;;;;;5.97;2.87;;;21.80;1.00;;;;;;5041551;28;20620;-87
2022/06/29 02:49:55;;;;;;;11.33;3.70;;;21.70;1.00;;;;;;5022007;28;20239;-87
2022/06/29 02:52:21;;;;;;;7.73;3.50;;;21.70;1.00;;;;;;5041984;28;20281;-86
2022/06/29 02:54:47;;;;;;;4.43;2.63;;;21.60;1.00;;;;;;5024752;28;20209;-85
2022/06/29 02:57:13;;;;;;;4.63;3.33;;;21.50;1.00;;;;;;5041444;28;20301;-86
2022/06/29 02:59:39;;;;;;;7.33;3.10;;;21.30;1.00;;;;;;5024032;28;20656;-88
2022/06/29 03:02:05;;;;;;;6.53;3.60;;;21.40;1.00;;;;;;5024529;28;20188;-86
2022/06/29 03:04:34;;;;;;;7.17;3.20;;;21.30;1.00;;;;;;5041830;28;20204;-85
2022/06/29 03:07:00;;;;;;;5.00;3.00;;;21.10;1.00;;;;;;5045403;28;20209;-87
2022/06/29 03:09:26;;;;;;;5.17;2.83;;;20.90;1.00;;;;;;5026366;28;20176;-84
2022/06/29 03:11:52;;;;;;;4.33;2.90;;;20.80;1.00;;;;;;5048572;28;20166;-86
2022/06/29 03:14:18;;;;;;;5.53;2.50;;;21.00;1.00;;;;;;5039812;28;20188;-84
2022/06/29 03:16:44;;;;;;;5.23;2.50;;;20.80;1.00;;;;;;5038878;28;20200;-86
2022/06/29 03:19:09;;;;;;;4.33;2.60;;;20.50;1.00;;;;;;5037824;28;20201;-83
2022/06/29 03:21:35;;;;;;;6.17;2.90;;;20.30;1.00;;;;;;5038221;28;20172;-88
2022/06/29 03:24:03;;;;;;;4.67;2.90;;;20.30;1.00;;;;;;5036278;28;20252;-86
2022/06/29 03:26:30;;;;;;;6.90;2.70;;;20.20;1.00;;;;;;5055253;28;20205;-85
2022/06/29 03:28:55;;;;;;;6.10;2.80;;;20.00;1.60;;;;;;5055779;28;20169;-88
2022/06/29 03:31:21;;;;;;;5.07;3.03;;;19.80;3.80;;;;;;5056649;28;20187;-83
2022/06/29 03:33:47;;;;;;;5.83;3.40;;;19.80;6.30;;;;;;5056779;28;20165;-84
2022/06/29 03:36:13;;;;;;;5.50;3.00;;;19.80;6.80;;;;;;5052630;28;20625;-86
2022/06/29 03:38:39;;;;;;;6.83;2.60;;;19.60;8.30;;;;;;5027026;28;20655;-85
2022/06/29 03:41:06;;;;;;;8.30;2.77;;;19.60;7.20;;;;;;5026768;28;20233;-86
2022/06/29 03:43:33;;;;;;;4.70;2.47;;;19.60;7.30;;;;;;5026413;28;20178;-85
2022/06/29 03:45:59;;;;;;;4.70;2.53;;;19.60;8.40;;;;;;5037250;28;20626;-87
2022/06/29 03:48:30;;;;;;;4.47;2.43;;;19.70;6.50;;;;;;5040580;28;20204;-87
2022/06/29 03:50:56;;;;;;;4.13;2.70;;;19.70;4.50;;;;;;5037414;28;20167;-87
2022/06/29 03:53:24;;;;;;;5.87;2.77;;;19.70;4.40;;;;;;5018967;28;20181;-87
2022/06/29 03:55:59;;;;;;;5.13;2.40;;;19.80;3.30;;;;;;5018403;28;20166;-86
2022/06/29 03:58:26;;;;;;;5.07;2.70;;;19.80;1.80;;;;;;5017919;28;20220;-87
2022/06/29 04:00:52;;;;;;;5.67;2.73;;;19.90;1.20;;;;;;5018417;28;20257;-89
2022/06/29 04:03:19;;;;;;;4.63;2.40;;;20.00;1.00;;;;;;5017930;28;20207;-88
2022/06/29 04:05:45;;;;;;;4.87;2.40;;;19.90;1.00;;;;;;5036365;28;20175;-87
2022/06/29 04:08:10;;;;;;;4.90;2.20;;;19.80;1.60;;;;;;5018524;28;20188;-87
2022/06/29 04:10:36;;;;;;;5.30;2.60;;;19.70;3.20;;;;;;5035471;28;20218;-88
2022/06/29 04:13:02;;;;;;;5.97;2.50;;;19.80;4.60;;;;;;5017762;28;20172;-88
2022/06/29 04:15:28;;;;;;;5.70;2.43;;;19.70;4.70;;;;;;5017754;28;20559;-87
2022/06/29 04:17:53;;;;;;;5.97;2.47;;;19.80;3.90;;;;;;5017784;28;20801;-88
2022/06/29 04:23:03;;;;;;;6.30;2.80;;;20.10;1.00;;;;;;5035454;28;20305;-87
2022/06/29 04:25:29;;;;;;;5.47;2.47;;;20.00;1.00;;;;;;5018140;28;20216;-87
2022/06/29 04:27:56;;;;;;;6.13;2.60;;;20.10;1.00;;;;;;5018296;28;20665;-88
2022/06/29 04:30:22;;;;;;;5.20;2.73;;;20.00;1.00;;;;;;5037281;28;20211;-84
2022/06/29 04:32:47;;;;;;;4.90;2.57;;;20.20;1.00;;;;;;5057073;28;20157;-79
2022/06/29 04:35:16;;;;;;;4.97;2.20;;;20.40;1.00;;;;;;5039575;28;20191;-87
2022/06/29 04:37:48;;;;;;;5.83;2.60;;;20.30;1.00;;;;;;5057857;28;20152;-82
2022/06/29 04:40:17;;;;;;;5.57;3.07;;;20.30;1.00;;;;;;5032001;28;20543;-88
2022/06/29 04:42:43;;;;;;;6.47;2.77;;;20.40;1.00;;;;;;5036558;28;20249;-88
2022/06/29 04:46:19;;;;;;;7.10;2.90;;;20.50;1.00;;;;;;5034984;28;20180;-87
2022/06/29 04:47:59;;;;;;;4.87;2.90;;;20.40;1.00;;;;;;5033439;28;20236;-88
2022/06/29 04:50:25;;;;;;;6.60;2.80;;;20.50;1.00;;;;;;5016847;28;20504;-83
2022/06/29 04:52:51;;;;;;;7.20;2.90;;;20.50;1.00;;;;;;5034965;28;20249;-86
2022/06/29 04:55:16;;;;;;;6.37;2.67;;;20.40;1.00;;;;;;5035577;28;20641;-87
2022/06/29 04:57:42;;;;;;;7.63;2.90;;;20.30;1.00;;;;;;5039003;28;20169;-88
2022/06/29 05:00:09;;;;;;;5.00;3.10;;;20.20;1.00;;;;;;5024676;28;20182;-85
2022/06/29 05:02:34;;;;;;;9.33;2.57;;;20.20;1.00;;;;;;5041446;28;20250;-89
2022/06/29 05:05:00;;;;;;;7.50;3.23;;;20.30;1.00;;;;;;5035233;28;20647;-86
2022/06/29 05:07:32;;;;;;;9.93;3.90;;;20.30;1.00;;;;;;5036396;28;20214;-86
2022/06/29 05:09:59;;;;;;;9.60;3.43;;;20.30;1.00;;;;;;5031486;28;20232;-86
2022/06/29 05:12:25;;;;;;;9.87;3.33;;;20.30;1.00;;;;;;5034363;28;20180;-85
2022/06/29 05:14:50;;;;;;;10.87;3.37;;;20.50;1.00;;;;;;5032532;28;20173;-86
2022/06/29 05:17:18;;;;;;;5.30;3.13;;;20.60;1.00;;;;;;5034329;28;20200;-86
2022/06/29 05:19:44;;;;;;;5.63;3.13;;;20.60;1.00;;;;;;5052480;28;20177;-86
2022/06/29 05:22:12;;;;;;;8.83;3.17;;;20.60;1.00;;;;;;5032999;28;20184;-87
2022/06/29 05:24:39;;;;;;;8.53;3.13;;;20.70;1.00;;;;;;5019021;28;20196;-88
2022/06/29 05:27:10;;;;;;;6.70;2.83;;;20.70;1.00;;;;;;5018237;28;20299;-86
2022/06/29 05:29:38;;;;;;;5.67;3.17;;;20.80;1.00;;;;;;5034515;28;20657;-86
2022/06/29 05:32:10;;;;;;;8.10;3.23;;;20.70;1.00;;;;;;5034865;28;20659;-88
2022/06/29 05:34:38;;;;;;;7.20;2.90;;;20.70;1.00;;;;;;5017585;28;20202;-88
2022/06/29 05:37:05;;;;;;;9.07;3.50;;;20.70;1.00;;;;;;5017255;28;20169;-86
2022/06/29 05:39:31;;;;;;;8.30;3.03;;;20.70;1.00;;;;;;5035328;28;20206;-84
2022/06/29 05:41:56;;;;;;;9.00;3.97;;;20.60;1.00;;;;;;5016716;28;20163;-83
2022/06/29 05:44:22;;;;;;;12.30;4.90;;;20.70;1.00;;;;;;5034793;28;20220;-83
2022/06/29 05:46:48;;;;;;;7.53;3.30;;;20.90;1.00;;;;;;5020835;28;20225;-87
2022/06/29 05:49:14;;;;;;;12.27;3.07;;;21.10;1.00;;;;;;5024075;28;20199;-86
2022/06/29 05:51:40;;;;;;;7.83;3.40;;;21.00;1.00;;;;;;5040424;28;20197;-85
2022/06/29 05:54:07;;;;;;;7.47;3.30;;;21.20;1.00;;;;;;5040736;28;20173;-86
2022/06/29 05:56:33;;;;;;;5.70;3.23;;;21.40;1.00;;;;;;5019868;28;20626;-84
2022/06/29 05:58:58;;;;;;;6.90;3.63;;;21.40;1.00;;;;;;5035343;28;20269;-84
2022/06/29 06:01:24;;;;;;;9.63;3.50;;;21.40;1.00;;;;;;5042956;28;20168;-87
2022/06/29 06:03:50;;;;;;;8.70;3.33;;;21.50;1.00;;;;;;5038699;28;20235;-85
2022/06/29 06:06:17;;;;;;;10.70;4.33;;;21.40;1.00;;;;;;5041172;28;20254;-80
2022/06/29 06:08:43;;;;;;;11.60;4.40;;;21.50;1.00;;;;;;5042430;28;20166;-88
2022/06/29 06:11:09;;;;;;;9.17;3.73;;;21.60;1.00;;;;;;5016165;28;20184;-87
2022/06/29 06:13:34;;;;;;;10.67;3.47;;;21.60;1.00;;;;;;5010541;28;20671;-87
2022/06/29 06:16:00;;;;;;;11.13;3.87;;;21.60;1.00;;;;;;5018136;28;20696;-87
2022/06/29 06:18:26;;;;;;;11.07;3.33;;;21.60;1.00;;;;;;5020439;28;20170;-86
2022/06/29 06:20:52;;;;;;;12.70;3.63;;;21.60;1.00;;;;;;5019236;28;20174;-86
2022/06/29 06:23:20;;;;;;;11.93;3.73;;;21.80;1.00;;;;;;5019980;28;20194;-87
2022/06/29 06:25:46;;;;;;;10.17;3.43;;;21.90;1.00;;;;;;5027610;28;20175;-86
2022/06/29 06:28:12;;;;;;;8.87;3.30;;;22.00;1.00;;;;;;5027969;28;20210;-88
2022/06/29 06:30:38;;;;;;;13.67;3.30;;;22.10;1.00;;;;;;5026801;28;20176;-87
2022/06/29 06:33:04;;;;;;;8.33;3.63;;;22.10;1.00;;;;;;5011484;28;20186;-88
2022/06/29 06:35:30;;;;;;;7.83;3.20;;;22.20;1.00;;;;;;5035322;28;20557;-88
2022/06/29 06:37:56;;;;;;;8.47;3.30;;;22.30;1.00;;;;;;5033163;28;20238;-83
2022/06/29 06:43:06;;;;;;;10.43;3.10;;;22.10;1.00;;;;;;5032591;28;20205;-85
2022/06/29 06:45:32;;;;;;;11.00;3.37;;;22.00;1.00;;;;;;5025919;28;20262;-84
2022/06/29 06:47:59;;;;;;;9.07;3.53;;;21.90;1.00;;;;;;5007852;28;20226;-86
2022/06/29 06:50:26;;;;;;;6.67;3.13;;;21.90;1.00;;;;;;5022100;28;20617;-86
2022/06/29 06:52:52;;;;;;;11.13;3.33;;;22.00;1.00;;;;;;5002643;28;20234;-83
2022/06/29 06:55:18;;;;;;;13.93;3.67;;;22.20;1.00;;;;;;5037912;28;20156;-82
2022/06/29 06:57:43;;;;;;;10.13;2.87;;;22.20;1.00;;;;;;5046629;28;20213;-80
2022/06/29 07:00:15;;;;;;;12.17;3.10;;;22.40;1.00;;;;;;5063555;28;20203;-86
2022/06/29 07:02:47;;;;;;;9.80;3.00;;;22.70;1.00;;;;;;5031641;28;20199;-87
2022/06/29 07:05:15;;;;;;;7.87;2.53;;;22.60;1.00;;;;;;5036504;28;20256;-83
2022/06/29 07:07:41;;;;;;;8.23;2.63;;;22.70;1.00;;;;;;5032346;28;20203;-84
2022/06/29 07:10:07;;;;;;;8.97;2.47;;;22.70;1.00;;;;;;5033520;28;20200;-86
2022/06/29 07:12:34;;;;;;;6.60;2.70;;;22.60;1.00;;;;;;5030825;28;20727;-83
2022/06/29 07:15:00;;;;;;;12.40;2.60;;;22.70;1.00;;;;;;5034321;28;20175;-83
2022/06/29 07:17:25;;;;;;;7.77;3.03;;;22.70;1.00;;;;;;5017659;28;20567;-82
2022/06/29 07:19:51;;;;;;;7.40;3.33;;;22.60;1.00;;;;;;5033755;28;20235;-84
2022/06/29 07:22:17;;;;;;;9.50;3.97;;;22.70;1.00;;;;;;5017808;28;20273;-83
2022/06/29 07:24:43;;;;;;;5.93;3.30;;;22.90;1.00;;;;;;5016664;28;20233;-83
2022/06/29 07:27:09;;;;;;;14.00;3.97;;;22.90;1.00;;;;;;5035538;28;20214;-84
2022/06/29 07:29:35;;;;;;;10.07;4.03;;;22.90;1.00;;;;;;5034855;28;20524;-84
2022/06/29 07:32:01;;;;;;;10.27;3.83;;;23.00;1.00;;;;;;5008998;28;20198;-86
2022/06/29 07:34:27;;;;;;;7.97;3.70;;;23.10;1.00;;;;;;5016575;28;20199;-84
2022/06/29 07:36:53;;;;;;;9.47;4.07;;;23.40;1.00;;;;;;5040369;28;20176;-84
2022/06/29 07:39:18;;;;;;;8.60;3.83;;;23.40;1.00;;;;;;5034812;28;20193;-83
2022/06/29 07:41:44;;;;;;;5.97;4.10;;;23.30;1.00;;;;;;5018414;28;20545;-82
2022/06/29 07:44:10;;;;;;;8.70;3.77;;;23.30;1.00;;;;;;5015571;28;20591;-82
2022/06/29 07:46:35;;;;;;;7.47;4.03;;;23.30;1.00;;;;;;5019081;28;20214;-83
2022/06/29 07:49:02;;;;;;;9.37;3.70;;;23.30;1.00;;;;;;5034529;28;20275;-84
2022/06/29 07:51:28;;;;;;;10.70;4.57;;;23.40;1.00;;;;;;5020085;28;20274;-86
2022/06/29 07:53:55;;;;;;;7.23;4.07;;;23.50;1.00;;;;;;5006111;28;20234;-84
2022/06/29 07:56:21;;;;;;;9.07;4.10;;;23.70;1.00;;;;;;5022079;28;20235;-85
2022/06/29 07:58:46;;;;;;;10.97;4.20;;;23.70;1.00;;;;;;5022764;28;20180;-83
2022/06/29 08:01:12;;;;;;;9.13;4.60;;;23.70;1.00;;;;;;5021975;28;20183;-85
2022/06/29 08:03:38;;;;;;;8.50;4.30;;;23.80;1.00;;;;;;5005130;28;20193;-82
2022/06/29 08:06:05;;;;;;;12.77;4.20;;;24.00;1.00;;;;;;5038049;28;20190;-82
2022/06/29 08:08:31;;;;;;;12.70;4.77;;;24.20;1.00;;;;;;5033945;28;20211;-82
2022/06/29 08:10:57;;;;;;;9.97;4.53;;;24.40;1.00;;;;;;5039512;28;20219;-82
2022/06/29 08:13:24;;;;;;;10.20;4.73;;;24.50;1.00;;;;;;5017510;28;20264;-83
2022/06/29 08:15:49;;;;;;;14.20;6.27;;;24.50;1.00;;;;;;5019882;28;20208;-80
2022/06/29 08:18:16;;;;;;;11.20;5.20;;;24.60;1.00;;;;;;5037675;28;20552;-86
2022/06/29 08:20:43;;;;;;;9.57;4.53;;;24.60;1.00;;;;;;5038040;28;20181;-82
2022/06/29 08:23:09;;;;;;;7.33;4.40;;;24.60;1.00;;;;;;5020521;28;20189;-84
2022/06/29 08:25:35;;;;;;;7.23;4.10;;;24.70;99.90;;;;;;5019642;28;20196;-82
2022/06/29 08:28:01;;;;;;;6.33;3.80;;;24.70;99.90;;;;;;5003222;28;20212;-84
2022/06/29 08:30:27;;;;;;;8.53;3.47;;;24.50;99.90;;;;;;5034018;28;20189;-84
2022/06/29 08:32:53;;;;;;;11.37;4.37;;;24.40;99.90;;;;;;5011018;28;20188;-82
2022/06/29 08:35:19;;;;;;;9.07;4.27;;;24.40;1.00;;;;;;5038968;28;20210;-83
2022/06/29 08:37:46;;;;;;;10.20;4.77;;;24.40;99.90;;;;;;5020551;28;20164;-83
2022/06/29 08:40:14;;;;;;;7.97;4.47;;;24.40;99.90;;;;;;5026172;28;20187;-84
2022/06/29 08:42:41;;;;;;;9.47;4.20;;;24.40;1.00;;;;;;5037109;28;20317;-85
2022/06/29 08:45:09;;;;;;;7.83;4.93;;;24.50;99.90;;;;;;5022401;28;20177;-84
2022/06/29 08:47:36;;;;;;;9.20;4.07;;;24.60;1.00;;;;;;5025557;28;20218;-82
2022/06/29 08:50:06;;;;;;;8.67;4.23;;;24.70;99.90;;;;;;5037912;28;20208;-82
2022/06/29 08:52:36;;;;;;;8.93;4.60;;;24.80;99.90;;;;;;5020696;28;20218;-83
2022/06/29 08:55:05;;;;;;;13.53;4.10;;;24.80;99.90;;;;;;5013804;28;20188;-82
2022/06/29 08:57:34;;;;;;;15.57;4.27;;;24.90;99.90;;;;;;5018216;28;20240;-80
2022/06/29 09:00:00;;;;;;;9.90;3.80;;;24.90;99.90;;;;;;5037921;28;20150;-82
2022/06/29 09:02:26;;;;;;;8.53;4.00;;;24.90;99.90;;;;;;5040471;28;20246;-81
2022/06/29 09:04:53;;;;;;;8.93;4.10;;;25.00;99.90;;;;;;5020161;28;20640;-85
2022/06/29 09:07:29;;;;;;;8.10;3.77;;;25.20;99.90;;;;;;5026432;28;20217;-85
2022/06/29 09:10:13;;;;;;;9.57;3.50;;;25.20;1.00;;;;;;5051244;28;20186;-88
2022/06/29 09:12:42;;;;;;;11.33;4.50;;;25.40;1.00;;;;;;5041169;28;20243;-87
2022/06/29 09:15:09;;;;;;;8.40;4.23;;;25.30;1.00;;;;;;5019509;28;20174;-82
2022/06/29 09:17:36;;;;;;;9.00;3.77;;;25.30;1.00;;;;;;5047575;28;20200;-83
2022/06/29 09:20:04;;;;;;;8.07;2.50;;;25.50;1.00;;;;;;5058576;28;20161;-84
2022/06/29 09:22:30;;;;;;;10.53;3.53;;;25.60;1.00;;;;;;5047071;28;20178;-80
2022/06/29 09:25:02;;;;;;;8.10;3.37;;;25.60;40.90;;;;;;5047608;28;20234;-84
2022/06/29 09:27:43;;;;;;;6.90;2.40;;;25.60;99.90;;;;;;5043966;28;20209;-88
2022/06/29 09:30:35;;;;;;;5.70;1.87;;;25.70;1.00;;;;;;5044327;28;20169;-88
2022/06/29 09:33:07;;;;;;;6.03;1.70;;;25.80;99.90;;;;;;5027180;28;20177;-83
2022/06/29 09:35:37;;;;;;;8.03;2.10;;;25.70;1.00;;;;;;5044206;28;20178;-86
2022/06/29 09:38:30;;;;;;;4.73;1.87;;;25.60;1.00;;;;;;5029715;28;20230;-87
2022/06/29 09:41:06;;;;;;;6.07;1.70;;;25.60;80.70;;;;;;5047743;28;20626;-86
2022/06/29 09:43:36;;;;;;;4.57;1.77;;;25.80;1.00;;;;;;5048216;28;20169;-86
2022/06/29 09:46:04;;;;;;;8.03;2.20;;;25.80;99.90;;;;;;5050571;28;20176;-85
2022/06/29 09:48:33;;;;;;;4.10;1.47;;;26.00;1.00;;;;;;5047370;28;20217;-80
2022/06/29 09:50:59;;;;;;;3.47;1.40;;;26.10;50.30;;;;;;5047711;28;20168;-86
2022/06/29 09:53:36;;;;;;;5.40;1.87;;;26.20;1.00;;;;;;5047300;28;20244;-86
2022/06/29 09:56:06;;;;;;;6.93;2.00;;;26.20;99.90;;;;;;5028866;28;20268;-86
2022/06/29 09:58:50;;;;;;;3.43;1.30;;;26.20;1.00;;;;;;5013091;28;20180;-85
2022/06/29 10:04:03;;;;;;;5.83;1.50;;;26.10;1.00;;;;;;5026796;28;20266;-87
2022/06/29 10:06:29;;;;;;;3.63;1.43;;;26.10;99.90;;;;;;5008198;28;20232;-87
2022/06/29 10:09:00;;;;;;;6.67;1.80;;;26.20;99.90;;;;;;5027761;28;20237;-88
2022/06/29 10:15:00;;;;;;;3.57;1.60;;;26.50;1.00;;;;;;5028299;28;20595;-89
2022/06/29 10:18:08;;;;;;;3.60;1.23;;;26.50;99.90;;;;;;5028442;28;20178;-88
2022/06/29 10:21:00;;;;;;;3.77;1.80;;;26.70;99.90;;;;;;5032945;28;20188;-86
2022/06/29 10:23:55;;;;;;;8.30;1.90;;;27.10;1.00;;;;;;5051559;28;20178;-86
2022/06/29 10:26:32;;;;;;;3.07;1.40;;;27.20;91.20;;;;;;5051156;28;20236;-88
2022/06/29 10:29:10;;;;;;;4.73;1.47;;;27.40;99.90;;;;;;5046899;28;20177;-84
2022/06/29 10:31:51;;;;;;;4.33;1.37;;;27.50;99.90;;;;;;5047532;28;20165;-90
2022/06/29 10:34:32;;;;;;;2.10;1.20;;;27.30;94.70;;;;;;5031535;28;20175;-88
2022/06/29 10:37:14;;;;;;;5.22;1.55;;;27.10;1.00;;;;;;5045122;28;20208;-86
2022/06/29 10:39:48;;;;;;;5.33;1.70;;;27.00;1.00;;;;;;5041092;28;20657;-85
2022/06/29 10:45:13;;;;;;;5.83;1.87;;;27.00;1.00;;;;;;5043049;28;20537;-88
2022/06/29 10:47:39;;;;;;;5.87;1.50;;;27.00;99.90;;;;;;5043155;28;20209;-85
2022/06/29 10:50:19;;;;;;;4.60;1.57;;;27.10;1.00;;;;;;5054500;28;20233;-86
2022/06/29 10:52:46;;;;;;;4.50;1.30;;;27.20;1.00;;;;;;5055446;28;20175;-87
2022/06/29 10:55:12;;;;;;;4.27;1.60;;;27.10;1.00;;;;;;5049813;28;20167;-85
2022/06/29 10:57:39;;;;;;;4.07;1.20;;;27.20;1.00;;;;;;5049963;28;20636;-84
2022/06/29 11:00:09;;;;;;;4.40;1.60;;;27.30;1.00;;;;;;5053992;28;20184;-85
2022/06/29 11:02:36;;;;;;;6.87;1.70;;;27.40;99.90;;;;;;5032245;28;20182;-84
2022/06/29 11:05:04;;;;;;;4.87;1.30;;;27.50;99.90;;;;;;5055715;28;20162;-85
2022/06/29 11:13:00;;;;;;;3.07;1.50;;;26.90;99.90;;;;;;5051305;28;20232;-84
2022/06/29 11:15:44;;;;;;;4.60;1.57;;;27.00;99.90;;;;;;5033297;28;20197;-84
2022/06/29 11:18:21;;;;;;;5.43;1.60;;;27.10;99.90;;;;;;5049034;28;20177;-87
2022/06/29 11:20:50;;;;;;;4.27;1.47;;;27.20;99.90;;;;;;5030205;28;20172;-85
2022/06/29 11:23:18;;;;;;;6.00;1.50;;;27.30;99.90;;;;;;5045319;28;20237;-84
2022/06/29 11:25:47;;;;;;;3.67;1.60;;;27.50;95.80;;;;;;5011101;28;20182;-85
2022/06/29 11:28:21;;;;;;;4.27;1.67;;;27.50;1.00;;;;;;5027846;28;20210;-84
2022/06/29 11:31:04;;;;;;;2.90;1.30;;;27.20;1.00;;;;;;5047530;28;20258;-82
2022/06/29 11:33:33;;;;;;;5.27;1.50;;;27.10;1.00;;;;;;5046589;28;20174;-85
2022/06/29 11:36:10;;;;;;;7.20;1.67;;;27.10;1.00;;;;;;5040802;28;20165;-82
2022/06/29 11:38:40;;;;;;;5.83;1.60;;;27.30;10.90;;;;;;5022771;28;20227;-84
2022/06/29 11:41:10;;;;;;;3.17;1.60;;;27.60;31.50;;;;;;5041877;28;20179;-81
2022/06/29 11:43:36;;;;;;;3.10;1.53;;;27.80;1.00;;;;;;5051647;28;20178;-84
2022/06/29 11:46:02;;;;;;;5.93;1.50;;;28.00;1.00;;;;;;5040834;28;20177;-79
2022/06/29 11:48:29;;;;;;;5.30;1.57;;;27.80;1.00;;;;;;5048159;28;20230;-84
2022/06/29 11:50:58;;;;;;;4.27;1.50;;;27.60;1.00;;;;;;5037284;28;20684;-86
2022/06/29 11:53:43;;;;;;;5.63;1.90;;;27.70;1.00;;;;;;5039511;28;20177;-86
2022/06/29 11:56:14;;;;;;;8.20;1.70;;;27.50;1.00;;;;;;5037046;28;20189;-83
2022/06/29 11:58:50;;;;;;;7.30;1.60;;;27.60;1.00;;;;;;5016855;28;20203;-84
2022/06/29 12:01:18;;;;;;;8.33;1.70;;;27.70;1.00;;;;;;5034089;28;20173;-85
2022/06/29 12:03:52;;;;;;;4.00;1.63;;;27.80;1.00;;;;;;5036752;28;20232;-81
2022/06/29 12:06:19;;;;;;;5.73;1.60;;;27.60;1.00;;;;;;5024142;28;20178;-82
2022/06/29 12:08:45;;;;;;;5.90;1.57;;;27.50;1.00;;;;;;5038502;28;20296;-83
2022/06/29 12:11:12;;;;;;;4.20;1.50;;;27.50;1.00;;;;;;5037927;28;20166;-87
2022/06/29 12:13:38;;;;;;;3.73;1.47;;;27.50;1.00;;;;;;5039719;28;20203;-85
2022/06/29 12:16:04;;;;;;;5.20;1.63;;;27.50;1.00;;;;;;5040367;28;20694;-85
2022/06/29 12:18:31;;;;;;;6.50;1.57;;;27.40;1.00;;;;;;5025373;28;20182;-84
2022/06/29 12:20:58;;;;;;;6.83;1.50;;;27.40;1.00;;;;;;5042187;28;20184;-80
2022/06/29 12:23:26;;;;;;;3.87;1.33;;;27.30;1.00;;;;;;5045741;28;20536;-86
2022/06/29 12:25:52;;;;;;;3.60;1.60;;;27.10;1.00;;;;;;5046019;28;20174;-85
2022/06/29 12:28:18;;;;;;;5.30;1.90;;;27.10;99.90;;;;;;5043904;28;20529;-86
2022/06/29 12:30:43;;;;;;;5.97;1.70;;;27.20;99.90;;;;;;5044968;28;20180;-86
2022/06/29 12:33:09;;;;;;;4.67;1.30;;;27.40;88.40;;;;;;5022411;28;20177;-81
2022/06/29 12:35:38;;;;;;;5.13;1.70;;;27.30;4.50;;;;;;5038900;28;20216;-81
2022/06/29 12:38:05;;;;;;;5.87;1.50;;;27.10;99.90;;;;;;5041587;28;20161;-87
2022/06/29 12:40:34;;;;;;;4.43;2.07;;;27.10;99.90;;;;;;5025919;28;20178;-86
2022/06/29 12:43:00;;;;;;;6.73;2.03;;;27.10;99.90;;;;;;5028153;28;20172;-86
2022/06/29 12:45:26;;;;;;;4.67;1.70;;;27.20;99.90;;;;;;5044465;28;20197;-86
2022/06/29 12:47:52;;;;;;;3.70;1.50;;;27.10;99.90;;;;;;5024066;28;20208;-85
2022/06/29 12:50:20;;;;;;;5.50;2.87;;;27.50;99.90;;;;;;5047825;28;20174;-84
2022/06/29 12:52:47;;;;;;;7.73;1.80;;;27.60;99.90;;;;;;5026940;28;20177;-86
2022/06/29 12:55:14;;;;;;;4.73;1.70;;;27.60;99.80;;;;;;5026919;28;20170;-85
2022/06/29 12:58:00;;;;;;;5.07;1.53;;;27.60;91.10;;;;;;5043972;28;20532;-85
2022/06/29 13:00:33;;;;;;;3.43;1.50;;;27.40;99.90;;;;;;5025695;28;20193;-84
2022/06/29 13:02:58;;;;;;;3.07;1.70;;;27.30;99.90;;;;;;5051833;28;20158;-84
2022/06/29 13:05:24;;;;;;;6.03;2.00;;;27.30;99.90;;;;;;5043161;28;20171;-81
2022/06/29 13:07:51;;;;;;;4.70;1.80;;;27.10;99.90;;;;;;5050296;28;20227;-86
2022/06/29 13:10:18;;;;;;;8.13;2.63;;;27.30;99.90;;;;;;5043157;28;20261;-85
2022/06/29 13:12:44;;;;;;;4.37;1.57;;;27.60;99.90;;;;;;5048084;28;20182;-85
2022/06/29 13:15:09;;;;;;;7.40;1.87;;;28.00;99.90;;;;;;5053752;28;20194;-84
2022/06/29 13:17:36;;;;;;;3.58;1.55;;;28.20;5.90;;;;;;5055880;28;20218;-83
2022/06/29 13:20:08;;;;;;;7.30;1.60;;;28.30;1.00;;;;;;5054160;28;20153;-84
2022/06/29 13:22:35;;;;;;;4.10;2.00;;;28.60;1.00;;;;;;5038067;28;20231;-85